Time;durP1;ratioP1;P1;durP2;ratioP2;P2;SDS_P1;SDS_P2;PMS_P1;PMS_P2;Temp;Humidity;BMP_temperature;BMP_pressure;BME280_temperature;BME280_humidity;BME280_pressure;Samples;Min_cycle;Max_cycle;Signal;HPM_P1;HPM_P2
2021/01/14 00:00:43;;;;;;;15.25;7.72;;;4.10;99.90;;;;;;4905432;29;20210;-77
2021/01/14 00:03:16;;;;;;;11.52;8.73;;;4.20;99.90;;;;;;4908167;29;20266;-77
2021/01/14 00:05:49;;;;;;;15.90;8.65;;;4.20;99.90;;;;;;4914779;29;20192;-77
2021/01/14 00:08:21;;;;;;;11.20;7.93;;;4.20;99.90;;;;;;4914382;29;20196;-77
2021/01/14 00:10:54;;;;;;;14.20;7.75;;;4.10;99.90;;;;;;4914009;29;20199;-76
2021/01/14 00:13:26;;;;;;;17.38;8.02;;;4.10;99.90;;;;;;4915852;29;20234;-76
2021/01/14 00:16:00;;;;;;;10.70;7.97;;;4.10;99.90;;;;;;4916528;29;20749;-76
2021/01/14 00:18:26;;;;;;;14.85;7.25;;;4.20;99.90;;;;;;4916522;29;20214;-76
2021/01/14 00:20:59;;;;;;;14.88;7.03;;;4.00;99.90;;;;;;4915025;29;20211;-76
2021/01/14 00:23:31;;;;;;;11.70;7.90;;;4.10;99.90;;;;;;4906358;29;20637;-75
2021/01/14 00:26:04;;;;;;;11.43;8.45;;;4.10;99.90;;;;;;4910548;29;20607;-75
2021/01/14 00:28:37;;;;;;;12.95;8.02;;;4.10;99.90;;;;;;4914352;29;20192;-77
2021/01/14 00:31:10;;;;;;;13.63;7.30;;;4.10;99.90;;;;;;4914243;29;20197;-76
2021/01/14 00:33:43;;;;;;;12.63;8.68;;;4.00;99.90;;;;;;4913833;29;20235;-76
2021/01/14 00:36:30;;;;;;;13.20;8.05;;;4.10;99.90;;;;;;4915784;29;20196;-76
2021/01/14 00:39:02;;;;;;;16.15;7.25;;;4.10;99.90;;;;;;4915210;29;20306;-77
2021/01/14 00:41:38;;;;;;;20.95;7.38;;;4.10;99.90;;;;;;4915471;29;20192;-75
2021/01/14 00:44:10;;;;;;;12.65;6.32;;;4.10;99.90;;;;;;4911670;29;20223;-76
2021/01/14 00:46:44;;;;;;;11.68;6.68;;;4.10;99.90;;;;;;4903714;29;20196;-75
2021/01/14 00:49:16;;;;;;;16.20;6.43;;;4.00;99.90;;;;;;4912702;29;20283;-76
2021/01/14 00:51:49;;;;;;;9.07;5.82;;;4.00;99.90;;;;;;4912322;29;20223;-76
2021/01/14 00:54:22;;;;;;;15.43;6.93;;;4.10;99.90;;;;;;4895405;29;20222;-77
2021/01/14 00:56:54;;;;;;;13.48;6.10;;;4.10;99.90;;;;;;4913901;29;20716;-76
2021/01/14 00:59:20;;;;;;;9.25;5.07;;;4.00;99.90;;;;;;4914255;29;20195;-77
2021/01/14 01:01:48;;;;;;;13.52;6.78;;;4.00;99.90;;;;;;4915351;29;20207;-75
2021/01/14 01:04:20;;;;;;;11.32;6.25;;;4.00;99.90;;;;;;4915063;29;20608;-76
2021/01/14 01:06:53;;;;;;;11.38;6.13;;;4.00;99.90;;;;;;4912956;29;20217;-76
2021/01/14 01:09:20;;;;;;;11.43;5.50;;;4.00;99.90;;;;;;4907965;29;20620;-75
2021/01/14 01:11:53;;;;;;;12.57;5.72;;;4.00;99.90;;;;;;4912037;29;20216;-75
2021/01/14 01:14:20;;;;;;;10.85;6.07;;;4.00;99.90;;;;;;4912303;29;20226;-76
2021/01/14 01:16:55;;;;;;;6.93;4.70;;;4.00;99.90;;;;;;4913599;29;20195;-76
2021/01/14 01:19:27;;;;;;;11.65;5.53;;;4.00;99.90;;;;;;4912924;29;20661;-75
2021/01/14 01:21:54;;;;;;;7.85;4.68;;;3.90;99.90;;;;;;4909730;29;20222;-76
2021/01/14 01:24:26;;;;;;;11.13;4.43;;;3.90;99.90;;;;;;4914828;29;20224;-76
2021/01/14 01:26:59;;;;;;;7.63;4.30;;;4.00;99.90;;;;;;4915082;29;20188;-76
2021/01/14 01:29:31;;;;;;;8.80;4.25;;;4.00;99.90;;;;;;4911560;29;20200;-76
2021/01/14 01:32:05;;;;;;;6.47;3.47;;;3.90;99.90;;;;;;4901161;29;20225;-76
2021/01/14 01:34:32;;;;;;;6.47;2.58;;;3.80;99.90;;;;;;4911663;29;20221;-75
2021/01/14 01:37:04;;;;;;;6.50;2.40;;;3.80;99.90;;;;;;4913306;29;20196;-76
2021/01/14 01:39:37;;;;;;;5.15;2.20;;;3.80;99.90;;;;;;4912712;29;20219;-76
2021/01/14 01:42:09;;;;;;;9.50;2.17;;;3.70;99.90;;;;;;4906427;29;20279;-76
2021/01/14 01:44:43;;;;;;;5.15;2.00;;;3.70;99.90;;;;;;4914186;29;20233;-75
2021/01/14 01:47:19;;;;;;;3.72;2.10;;;3.80;99.90;;;;;;4908570;29;20196;-75
2021/01/14 01:49:45;;;;;;;5.13;1.73;;;3.80;99.90;;;;;;4912351;29;20645;-76
2021/01/14 01:52:18;;;;;;;3.83;1.67;;;3.70;99.90;;;;;;4876652;29;20368;-76
2021/01/14 01:54:51;;;;;;;8.35;2.55;;;3.80;99.90;;;;;;4888139;29;20207;-75
2021/01/14 01:57:18;;;;;;;6.10;1.90;;;3.60;99.90;;;;;;4892314;29;20215;-76
2021/01/14 01:59:44;;;;;;;4.15;1.95;;;3.70;99.90;;;;;;4893708;29;20192;-76
2021/01/14 02:02:27;;;;;;;5.30;1.70;;;3.60;99.90;;;;;;4893627;29;20222;-76
2021/01/14 02:04:59;;;;;;;5.85;1.63;;;3.60;99.90;;;;;;4879669;29;20261;-75
2021/01/14 02:07:43;;;;;;;4.00;1.48;;;3.60;99.90;;;;;;4895403;29;20203;-76
2021/01/14 02:10:24;;;;;;;6.53;1.63;;;3.50;99.90;;;;;;4895177;29;20192;-77
2021/01/14 02:13:06;;;;;;;5.40;1.63;;;3.60;99.90;;;;;;4895022;29;20557;-76
2021/01/14 02:15:39;;;;;;;4.03;1.38;;;3.60;99.90;;;;;;4873721;29;20460;-77
2021/01/14 02:18:17;;;;;;;8.07;1.88;;;3.60;99.90;;;;;;4882445;29;20556;-76
2021/01/14 02:20:51;;;;;;;8.20;2.85;;;3.60;99.90;;;;;;4882685;29;20200;-76
2021/01/14 02:23:36;;;;;;;3.25;1.70;;;3.50;99.90;;;;;;4892696;29;20742;-76
2021/01/14 02:26:12;;;;;;;6.47;1.80;;;3.50;99.90;;;;;;4887799;29;21217;-76
2021/01/14 02:28:46;;;;;;;4.22;1.67;;;3.40;99.90;;;;;;4897425;29;20267;-76
2021/01/14 02:31:20;;;;;;;5.50;1.55;;;3.40;99.90;;;;;;4878568;29;20192;-76
2021/01/14 02:33:55;;;;;;;5.35;1.73;;;3.40;99.90;;;;;;4878290;29;20654;-76
2021/01/14 02:36:28;;;;;;;6.22;1.67;;;3.50;99.90;;;;;;4878344;29;20203;-76
2021/01/14 02:39:00;;;;;;;4.80;1.77;;;3.50;99.90;;;;;;4870118;29;20203;-76
2021/01/14 02:41:34;;;;;;;9.63;2.00;;;3.40;99.90;;;;;;4888008;29;20207;-76
2021/01/14 02:44:06;;;;;;;4.55;1.75;;;3.40;99.90;;;;;;4886470;29;20279;-77
2021/01/14 02:46:39;;;;;;;4.85;1.40;;;3.40;99.90;;;;;;4892369;29;20196;-76
2021/01/14 02:49:15;;;;;;;1.95;1.65;;;3.40;99.90;;;;;;4889638;29;20339;-76
2021/01/14 02:51:46;;;;;;;4.97;1.65;;;3.40;99.90;;;;;;4905444;29;20231;-76
2021/01/14 02:54:19;;;;;;;4.45;1.52;;;3.30;99.90;;;;;;4914242;29;20188;-75
2021/01/14 02:56:54;;;;;;;3.85;1.42;;;3.40;99.90;;;;;;4914100;29;20200;-76
2021/01/14 02:59:20;;;;;;;5.00;1.90;;;3.40;99.90;;;;;;4908035;29;20258;-77
2021/01/14 03:01:55;;;;;;;6.47;1.70;;;3.40;99.90;;;;;;4905972;29;20295;-77
2021/01/14 03:04:27;;;;;;;4.20;1.98;;;3.30;99.90;;;;;;4910140;29;20219;-76
2021/01/14 03:07:00;;;;;;;6.88;2.67;;;3.40;99.90;;;;;;4911716;29;20244;-76
2021/01/14 03:09:32;;;;;;;5.60;1.80;;;3.30;99.90;;;;;;4906350;29;20206;-76
2021/01/14 03:12:06;;;;;;;4.63;1.63;;;3.30;99.90;;;;;;4911691;29;20220;-76
2021/01/14 03:14:39;;;;;;;3.55;1.50;;;3.40;99.90;;;;;;4913498;29;20247;-76
2021/01/14 03:17:11;;;;;;;3.22;1.83;;;3.30;99.90;;;;;;4913798;29;20218;-75
2021/01/14 03:19:44;;;;;;;3.65;1.52;;;3.30;99.90;;;;;;4913741;29;21011;-76
2021/01/14 03:22:17;;;;;;;8.30;2.78;;;3.40;99.90;;;;;;4912532;29;20239;-76
2021/01/14 03:24:49;;;;;;;5.20;2.20;;;3.40;99.90;;;;;;4907846;29;20578;-76
2021/01/14 03:27:17;;;;;;;6.60;1.90;;;3.30;99.90;;;;;;4909525;29;20211;-76
2021/01/14 03:29:49;;;;;;;4.63;1.83;;;3.40;99.90;;;;;;4912052;29;20194;-77
2021/01/14 03:32:21;;;;;;;4.55;1.58;;;3.40;99.90;;;;;;4911153;29;20219;-76
2021/01/14 03:34:48;;;;;;;4.95;2.67;;;3.40;99.90;;;;;;4911660;29;20198;-76
2021/01/14 03:37:20;;;;;;;12.85;3.78;;;3.30;99.90;;;;;;4915488;29;20198;-76
2021/01/14 03:39:53;;;;;;;7.40;2.53;;;3.30;99.90;;;;;;4916708;29;20203;-76
2021/01/14 03:42:21;;;;;;;6.47;1.80;;;3.30;99.90;;;;;;4916809;29;20215;-76
2021/01/14 03:44:54;;;;;;;6.38;2.00;;;3.30;99.90;;;;;;4898670;29;20228;-76
2021/01/14 03:47:23;;;;;;;4.22;1.98;;;3.40;99.90;;;;;;4911085;29;20311;-75
2021/01/14 03:49:56;;;;;;;6.78;1.88;;;3.30;99.90;;;;;;4912605;29;20198;-76
2021/01/14 03:52:29;;;;;;;5.72;2.35;;;3.40;99.90;;;;;;4914216;29;20283;-76
2021/01/14 03:55:01;;;;;;;6.07;1.60;;;3.40;99.90;;;;;;4914836;29;20275;-75
2021/01/14 03:57:36;;;;;;;5.93;2.08;;;3.40;99.90;;;;;;4897623;29;20214;-75
2021/01/14 04:00:06;;;;;;;3.05;1.90;;;3.30;99.90;;;;;;4916802;29;20196;-75
2021/01/14 04:02:38;;;;;;;5.20;1.75;;;3.40;99.90;;;;;;4916055;29;20299;-76
2021/01/14 04:05:08;;;;;;;7.60;1.90;;;3.40;99.90;;;;;;4916302;29;20220;-76
2021/01/14 04:07:42;;;;;;;8.18;2.00;;;3.40;99.90;;;;;;4915564;29;20196;-75
2021/01/14 04:10:09;;;;;;;5.20;2.08;;;3.40;99.90;;;;;;4910606;29;20188;-76
2021/01/14 04:12:37;;;;;;;7.03;2.03;;;3.30;99.90;;;;;;4912098;29;20207;-76
2021/01/14 04:15:04;;;;;;;14.50;2.45;;;3.20;99.90;;;;;;4914394;29;20196;-76
2021/01/14 04:17:36;;;;;;;4.07;2.20;;;3.30;99.90;;;;;;4914005;29;20278;-76
2021/01/14 04:20:09;;;;;;;6.20;1.90;;;3.30;99.90;;;;;;4914502;29;20192;-76
2021/01/14 04:22:36;;;;;;;6.13;1.70;;;3.30;99.90;;;;;;4915078;29;20332;-76
2021/01/14 04:25:10;;;;;;;4.30;1.70;;;3.30;99.90;;;;;;4915487;29;20220;-75
2021/01/14 04:27:43;;;;;;;3.85;1.80;;;3.30;99.90;;;;;;4916356;29;20240;-77
2021/01/14 04:30:16;;;;;;;5.97;2.00;;;3.30;99.90;;;;;;4915567;29;20192;-76
2021/01/14 04:32:49;;;;;;;7.38;1.70;;;3.30;99.90;;;;;;4904924;29;20226;-77
2021/01/14 04:35:21;;;;;;;8.27;2.03;;;3.30;99.90;;;;;;4911873;29;20202;-76
2021/01/14 04:37:54;;;;;;;6.60;1.70;;;3.30;99.90;;;;;;4914039;29;20188;-76
2021/01/14 04:40:27;;;;;;;5.25;1.80;;;3.20;99.90;;;;;;4913992;29;20226;-76
2021/01/14 04:43:00;;;;;;;6.70;2.03;;;3.30;99.90;;;;;;4906844;29;20212;-76
2021/01/14 04:45:33;;;;;;;5.85;2.05;;;3.30;99.90;;;;;;4914780;29;20572;-76
2021/01/14 04:48:07;;;;;;;7.38;2.30;;;3.20;99.90;;;;;;4914767;29;20573;-76
2021/01/14 04:50:43;;;;;;;7.97;1.90;;;3.30;99.90;;;;;;4908405;29;20263;-76
2021/01/14 04:53:19;;;;;;;6.30;2.17;;;3.30;99.90;;;;;;4893467;29;20227;-76
2021/01/14 04:55:55;;;;;;;5.38;2.17;;;3.10;99.90;;;;;;4872563;29;20207;-75
2021/01/14 04:58:25;;;;;;;4.30;2.00;;;3.20;99.90;;;;;;4891831;29;20261;-76
2021/01/14 05:00:58;;;;;;;4.97;2.10;;;3.20;99.90;;;;;;4894822;29;20551;-76
2021/01/14 05:03:34;;;;;;;7.47;2.25;;;3.20;99.90;;;;;;4894480;29;20275;-76
2021/01/14 05:06:07;;;;;;;9.35;1.95;;;3.20;99.90;;;;;;4877983;29;20207;-76
2021/01/14 05:08:43;;;;;;;3.30;1.90;;;3.20;99.90;;;;;;4895758;29;20193;-76
2021/01/14 05:11:17;;;;;;;2.20;1.38;;;3.20;99.90;;;;;;4890451;29;20195;-76
2021/01/14 05:13:50;;;;;;;3.42;2.10;;;3.10;99.90;;;;;;4879573;29;20204;-75
2021/01/14 05:16:23;;;;;;;5.78;1.80;;;3.20;99.90;;;;;;4887918;29;20221;-76
2021/01/14 05:18:49;;;;;;;4.75;1.40;;;3.20;99.90;;;;;;4883198;29;20869;-75
2021/01/14 05:21:16;;;;;;;2.53;1.52;;;3.10;99.90;;;;;;4895574;29;20199;-76
2021/01/14 05:23:49;;;;;;;3.78;1.50;;;3.10;99.90;;;;;;4892528;29;20220;-76
2021/01/14 05:26:30;;;;;;;4.80;1.52;;;3.20;99.90;;;;;;4892346;29;20203;-76
2021/01/14 05:29:13;;;;;;;3.78;1.40;;;3.10;99.90;;;;;;4897455;29;20204;-76
2021/01/14 05:31:47;;;;;;;13.00;1.92;;;3.10;99.90;;;;;;4877806;29;20228;-76
2021/01/14 05:34:19;;;;;;;9.55;1.67;;;3.00;99.90;;;;;;4887331;29;20725;-76
2021/01/14 05:36:55;;;;;;;6.20;2.40;;;3.10;99.90;;;;;;4890670;29;20611;-76
2021/01/14 05:39:27;;;;;;;6.63;1.77;;;3.10;99.90;;;;;;4871880;29;20658;-77
2021/01/14 05:42:10;;;;;;;4.32;1.77;;;3.00;99.90;;;;;;4893118;29;20217;-76
2021/01/14 05:44:44;;;;;;;9.18;1.90;;;3.00;99.90;;;;;;4894505;29;20243;-76
2021/01/14 05:47:19;;;;;;;5.88;2.00;;;2.90;99.90;;;;;;4895838;29;20283;-75
2021/01/14 05:50:01;;;;;;;6.00;2.10;;;2.90;99.90;;;;;;4895244;29;20223;-76
2021/01/14 05:52:34;;;;;;;2.95;1.58;;;3.00;99.90;;;;;;4899778;29;20246;-76
2021/01/14 05:55:09;;;;;;;3.83;2.05;;;2.90;99.90;;;;;;4891460;29;20295;-76
2021/01/14 05:58:00;;;;;;;3.92;2.10;;;2.90;99.90;;;;;;4892643;29;20198;-76
2021/01/14 06:00:35;;;;;;;7.13;1.58;;;2.90;99.90;;;;;;4907883;29;20206;-76
2021/01/14 06:03:24;;;;;;;3.60;1.73;;;3.00;99.90;;;;;;4911269;29;20254;-75
2021/01/14 06:05:58;;;;;;;4.80;2.15;;;3.00;99.90;;;;;;4883070;29;20560;-77
2021/01/14 06:08:30;;;;;;;7.35;1.95;;;2.80;99.90;;;;;;4910049;29;20208;-77
2021/01/14 06:11:18;;;;;;;5.28;1.75;;;2.80;99.90;;;;;;4908832;29;20502;-76
2021/01/14 06:13:51;;;;;;;8.38;2.67;;;2.90;99.90;;;;;;4908518;29;20199;-76
2021/01/14 06:16:24;;;;;;;3.58;1.75;;;2.80;99.90;;;;;;4911610;29;20200;-76
2021/01/14 06:19:06;;;;;;;6.38;1.98;;;2.80;99.90;;;;;;4912082;29;20202;-76
2021/01/14 06:21:44;;;;;;;6.50;2.10;;;2.80;99.90;;;;;;4893718;29;20208;-76
2021/01/14 06:24:20;;;;;;;4.32;2.13;;;2.90;99.90;;;;;;4913771;29;20306;-75
2021/01/14 06:26:55;;;;;;;4.57;2.13;;;2.80;99.90;;;;;;4897836;29;20255;-77
2021/01/14 06:29:24;;;;;;;5.65;2.20;;;2.90;99.90;;;;;;4889377;29;20286;-76
2021/01/14 06:32:08;;;;;;;12.25;2.30;;;2.80;99.90;;;;;;4908425;29;20238;-76
2021/01/14 06:34:42;;;;;;;7.00;2.30;;;2.90;99.90;;;;;;4892957;29;20196;-76
2021/01/14 06:37:17;;;;;;;4.45;2.17;;;2.80;99.90;;;;;;4895380;29;20591;-78
2021/01/14 06:39:51;;;;;;;11.98;2.50;;;2.90;99.90;;;;;;4894954;29;20191;-82
2021/01/14 06:42:27;;;;;;;3.22;2.05;;;2.80;99.90;;;;;;4894254;29;20219;-78
2021/01/14 06:45:01;;;;;;;6.57;2.00;;;2.90;99.90;;;;;;4893359;29;20409;-82
2021/01/14 06:47:36;;;;;;;4.43;2.40;;;2.80;99.90;;;;;;4913593;29;20187;-76
2021/01/14 06:50:19;;;;;;;3.65;2.10;;;2.80;99.90;;;;;;4896057;29;20577;-76
2021/01/14 06:52:54;;;;;;;5.75;1.80;;;2.80;99.90;;;;;;4911792;29;20356;-77
2021/01/14 06:55:28;;;;;;;6.10;2.30;;;2.80;99.90;;;;;;4907192;29;20210;-77
2021/01/14 06:58:09;;;;;;;3.45;2.25;;;2.70;99.90;;;;;;4910987;29;20751;-76
2021/01/14 07:00:44;;;;;;;4.90;2.05;;;2.80;99.90;;;;;;4891208;29;20284;-76
2021/01/14 07:03:32;;;;;;;6.20;2.60;;;2.80;99.90;;;;;;4911000;29;20219;-77
2021/01/14 07:06:06;;;;;;;10.00;1.90;;;2.70;99.90;;;;;;4897052;29;20207;-76
2021/01/14 07:08:39;;;;;;;5.80;2.40;;;2.70;99.90;;;;;;4889251;29;20200;-76
2021/01/14 07:11:10;;;;;;;7.93;2.65;;;2.70;99.90;;;;;;4911325;29;20192;-76
2021/01/14 07:13:39;;;;;;;6.65;2.83;;;2.80;99.90;;;;;;4915229;29;20219;-77
2021/01/14 07:16:06;;;;;;;9.10;5.80;;;2.80;99.90;;;;;;4898772;29;20192;-76
2021/01/14 07:18:41;;;;;;;5.65;2.88;;;2.70;99.90;;;;;;4898798;29;20199;-77
2021/01/14 07:21:26;;;;;;;4.88;3.13;;;2.80;99.90;;;;;;4916559;29;20251;-77
2021/01/14 07:24:06;;;;;;;5.47;2.60;;;2.80;99.90;;;;;;4899390;29;20240;-77
2021/01/14 07:26:43;;;;;;;6.45;2.30;;;2.80;99.90;;;;;;4915915;29;20192;-80
2021/01/14 07:29:11;;;;;;;6.15;2.58;;;2.80;99.90;;;;;;4913723;29;20202;-77
2021/01/14 07:31:48;;;;;;;10.25;2.90;;;2.80;99.90;;;;;;4891069;29;20326;-77
2021/01/14 07:34:34;;;;;;;7.07;2.33;;;2.80;99.90;;;;;;4897891;29;20210;-77
2021/01/14 07:37:01;;;;;;;6.85;2.08;;;2.90;99.90;;;;;;4915300;29;20289;-76
2021/01/14 07:39:51;;;;;;;4.22;1.95;;;2.90;99.90;;;;;;4896862;29;20433;-77
2021/01/14 07:42:22;;;;;;;10.98;2.80;;;2.70;99.90;;;;;;4911493;29;20232;-77
2021/01/14 07:44:56;;;;;;;5.90;2.00;;;2.80;99.90;;;;;;4898457;29;20242;-79
2021/01/14 07:47:31;;;;;;;6.65;3.00;;;2.80;99.90;;;;;;4899816;29;20285;-77
2021/01/14 07:49:59;;;;;;;5.35;2.15;;;2.80;99.90;;;;;;4900247;29;20198;-77
2021/01/14 07:52:34;;;;;;;7.22;2.00;;;2.70;99.90;;;;;;4894812;29;20212;-76
2021/01/14 07:55:03;;;;;;;6.25;2.15;;;2.80;99.90;;;;;;4911766;29;20665;-76
2021/01/14 07:57:45;;;;;;;4.72;2.17;;;2.90;99.90;;;;;;4913840;29;20224;-76
2021/01/14 08:00:32;;;;;;;5.65;2.03;;;2.80;99.90;;;;;;4897662;29;20188;-77
2021/01/14 08:03:14;;;;;;;8.35;3.25;;;2.90;99.90;;;;;;4910435;29;20270;-77
2021/01/14 08:05:56;;;;;;;9.13;2.13;;;2.90;99.90;;;;;;4885140;29;20315;-78
2021/01/14 08:08:38;;;;;;;5.75;2.65;;;2.80;99.90;;;;;;4916581;29;20546;-77
2021/01/14 08:11:13;;;;;;;5.35;2.40;;;2.90;99.90;;;;;;4901608;29;20198;-76
2021/01/14 08:14:09;;;;;;;6.13;2.25;;;2.90;99.90;;;;;;4913083;29;20576;-77
2021/01/14 08:16:44;;;;;;;4.57;2.30;;;2.90;99.90;;;;;;4894019;29;20200;-76
2021/01/14 08:19:20;;;;;;;4.15;2.33;;;2.90;99.90;;;;;;4895729;29;20937;-76
2021/01/14 08:22:06;;;;;;;6.25;2.30;;;2.90;99.90;;;;;;4890577;29;20814;-76
2021/01/14 08:24:47;;;;;;;10.00;2.70;;;3.00;99.90;;;;;;4895532;29;20307;-75
2021/01/14 08:27:27;;;;;;;9.80;2.40;;;3.00;99.90;;;;;;4895210;29;20196;-76
2021/01/14 08:29:59;;;;;;;8.57;2.58;;;2.90;99.90;;;;;;4908151;29;20199;-76
2021/01/14 08:32:37;;;;;;;11.02;2.78;;;3.00;99.90;;;;;;4895580;29;20275;-77
2021/01/14 08:35:07;;;;;;;3.08;2.42;;;2.90;99.90;;;;;;4896191;29;20550;-76
2021/01/14 08:37:48;;;;;;;5.47;2.25;;;2.90;99.90;;;;;;4913484;29;20200;-76
2021/01/14 08:40:27;;;;;;;6.93;2.70;;;2.90;99.90;;;;;;4882309;29;20303;-76
2021/01/14 08:43:03;;;;;;;8.65;3.03;;;3.00;99.90;;;;;;4909481;29;20579;-76
2021/01/14 08:45:44;;;;;;;7.25;2.38;;;3.00;99.90;;;;;;4911161;29;20322;-77
2021/01/14 08:48:12;;;;;;;7.90;2.60;;;3.00;99.90;;;;;;4913825;29;20196;-76
2021/01/14 08:50:42;;;;;;;6.68;2.70;;;3.00;99.90;;;;;;4910883;29;20271;-75
2021/01/14 08:53:25;;;;;;;9.13;2.40;;;3.00;99.90;;;;;;4913174;29;20220;-76
2021/01/14 08:55:59;;;;;;;4.32;2.42;;;3.00;99.90;;;;;;4909018;29;20533;-76
2021/01/14 08:58:35;;;;;;;6.43;1.92;;;2.90;99.90;;;;;;4912724;29;20208;-76
2021/01/14 09:01:09;;;;;;;6.07;2.85;;;2.90;99.90;;;;;;4888903;29;20212;-75
2021/01/14 09:03:42;;;;;;;9.98;2.80;;;3.00;99.90;;;;;;4890410;29;20307;-76
2021/01/14 09:06:14;;;;;;;14.13;3.45;;;2.90;99.90;;;;;;4908835;29;20247;-77
2021/01/14 09:08:54;;;;;;;11.93;3.20;;;2.90;99.90;;;;;;4911288;29;20199;-76
2021/01/14 09:11:27;;;;;;;6.15;2.67;;;3.00;99.90;;;;;;4911405;29;20278;-76
2021/01/14 09:14:03;;;;;;;5.65;2.50;;;3.00;99.90;;;;;;4891072;29;20192;-76
2021/01/14 09:16:37;;;;;;;8.75;3.00;;;3.00;99.90;;;;;;4891848;29;20209;-77
2021/01/14 09:19:12;;;;;;;4.22;2.40;;;3.00;99.90;;;;;;4893399;29;20192;-76
2021/01/14 09:21:44;;;;;;;6.07;2.30;;;3.00;99.90;;;;;;4912394;29;20219;-76
2021/01/14 09:24:18;;;;;;;10.73;2.50;;;3.10;99.90;;;;;;4913291;29;20234;-76
2021/01/14 09:26:51;;;;;;;5.85;2.67;;;3.10;99.90;;;;;;4898276;29;20200;-78
2021/01/14 09:29:30;;;;;;;8.85;2.35;;;3.10;99.90;;;;;;4915020;29;20553;-76
2021/01/14 09:32:12;;;;;;;7.93;4.50;;;3.10;99.90;;;;;;4897044;29;20292;-76
2021/01/14 09:34:44;;;;;;;4.15;2.25;;;3.10;99.90;;;;;;4911743;29;20681;-76
2021/01/14 09:37:17;;;;;;;5.75;2.40;;;3.20;99.90;;;;;;4909227;29;20267;-77
2021/01/14 09:39:51;;;;;;;5.10;2.20;;;3.20;99.90;;;;;;4894423;29;20223;-75
2021/01/14 09:42:24;;;;;;;4.10;2.35;;;3.20;99.90;;;;;;4913141;29;20219;-77
2021/01/14 09:44:57;;;;;;;4.85;3.00;;;3.30;99.90;;;;;;4912696;29;20318;-76
2021/01/14 09:47:31;;;;;;;4.65;2.45;;;3.40;99.90;;;;;;4913619;29;20214;-76
2021/01/14 09:49:57;;;;;;;9.30;3.08;;;3.30;99.90;;;;;;4914438;29;20232;-78
2021/01/14 09:52:30;;;;;;;7.65;3.42;;;3.30;99.90;;;;;;4914928;29;20650;-76
2021/01/14 09:54:58;;;;;;;4.47;2.53;;;3.30;99.90;;;;;;4913110;29;20235;-76
2021/01/14 09:57:33;;;;;;;3.92;2.50;;;3.30;99.90;;;;;;4911467;29;20202;-76
2021/01/14 10:00:07;;;;;;;5.47;2.78;;;3.30;99.90;;;;;;4908049;29;20327;-77
2021/01/14 10:02:40;;;;;;;20.33;3.15;;;3.30;99.90;;;;;;4911610;29;20215;-76
2021/01/14 10:05:15;;;;;;;3.45;2.13;;;3.30;99.90;;;;;;4912780;29;20224;-76
2021/01/14 10:07:50;;;;;;;5.05;2.45;;;3.40;99.90;;;;;;4895247;29;20554;-77
2021/01/14 10:10:23;;;;;;;4.78;2.47;;;3.40;99.90;;;;;;4912981;29;20218;-78
2021/01/14 10:12:58;;;;;;;6.97;2.42;;;3.40;99.90;;;;;;4913711;29;20768;-77
2021/01/14 10:15:30;;;;;;;4.05;2.60;;;3.40;99.90;;;;;;4914498;29;20194;-77
2021/01/14 10:18:03;;;;;;;4.78;2.53;;;3.40;99.90;;;;;;4914447;29;20283;-77
2021/01/14 10:20:35;;;;;;;10.75;3.03;;;3.50;99.90;;;;;;4911889;29;20255;-77
2021/01/14 10:23:08;;;;;;;9.82;3.00;;;3.50;99.90;;;;;;4907238;29;20219;-76
2021/01/14 10:25:48;;;;;;;6.93;3.17;;;3.50;99.90;;;;;;4908857;29;20864;-77
2021/01/14 10:28:15;;;;;;;7.72;3.50;;;3.50;99.90;;;;;;4906791;29;20200;-77
2021/01/14 10:30:48;;;;;;;4.75;2.90;;;3.50;99.90;;;;;;4912517;29;20629;-77
2021/01/14 10:33:20;;;;;;;6.05;3.47;;;3.50;99.90;;;;;;4890506;29;20230;-78
2021/01/14 10:35:54;;;;;;;4.85;4.13;;;3.40;99.90;;;;;;4913794;29;20286;-76
2021/01/14 10:38:29;;;;;;;3.53;2.65;;;3.40;99.90;;;;;;4914194;29;20231;-78
2021/01/14 10:41:03;;;;;;;7.25;3.70;;;3.40;99.90;;;;;;4914111;29;20226;-77
2021/01/14 10:43:36;;;;;;;7.53;4.15;;;3.40;99.90;;;;;;4908854;29;20238;-77
2021/01/14 10:46:08;;;;;;;3.63;3.15;;;3.40;99.90;;;;;;4908086;29;20685;-76
2021/01/14 10:48:42;;;;;;;3.72;3.10;;;3.40;99.90;;;;;;4915956;29;20192;-76
2021/01/14 10:51:32;;;;;;;7.38;3.38;;;3.40;99.90;;;;;;4903995;29;20255;-76
2021/01/14 10:54:05;;;;;;;6.00;2.95;;;3.40;99.90;;;;;;4880193;29;20197;-76
2021/01/14 10:56:54;;;;;;;6.20;2.75;;;3.30;99.90;;;;;;4894794;29;20702;-75
2021/01/14 10:59:26;;;;;;;5.32;3.17;;;3.30;99.90;;;;;;4885078;29;20570;-76
2021/01/14 11:02:09;;;;;;;5.78;2.83;;;3.40;99.90;;;;;;4900458;29;20579;-77
2021/01/14 11:04:53;;;;;;;4.43;2.97;;;3.40;99.90;;;;;;4883416;29;20224;-77
2021/01/14 11:07:26;;;;;;;2.70;2.50;;;3.40;99.90;;;;;;4890479;29;20196;-77
2021/01/14 11:09:58;;;;;;;5.80;3.20;;;3.40;99.90;;;;;;4892046;29;20204;-76
2021/01/14 11:12:32;;;;;;;6.38;2.80;;;3.50;99.90;;;;;;4896619;29;20323;-77
2021/01/14 11:15:05;;;;;;;6.72;2.78;;;3.40;99.90;;;;;;4891214;29;20196;-77
2021/01/14 11:17:37;;;;;;;5.13;2.40;;;3.40;99.90;;;;;;4896752;29;20700;-77
2021/01/14 11:20:11;;;;;;;4.53;2.53;;;3.50;99.90;;;;;;4898535;29;20193;-75
2021/01/14 11:22:38;;;;;;;6.97;3.10;;;3.50;99.90;;;;;;4897898;29;20219;-76
2021/01/14 11:25:11;;;;;;;5.65;3.40;;;3.40;99.90;;;;;;4898187;29;20230;-76
2021/01/14 11:27:53;;;;;;;4.45;3.08;;;3.40;99.90;;;;;;4896451;29;20196;-76
2021/01/14 11:30:26;;;;;;;5.93;3.05;;;3.50;99.90;;;;;;4869592;29;20261;-76
2021/01/14 11:32:53;;;;;;;6.35;3.15;;;3.50;99.90;;;;;;4892840;29;20220;-76
2021/01/14 11:35:25;;;;;;;9.30;5.15;;;3.50;99.90;;;;;;4895993;29;20281;-75
2021/01/14 11:37:52;;;;;;;5.53;2.95;;;3.50;99.90;;;;;;4893181;29;20651;-76
2021/01/14 11:40:24;;;;;;;4.00;2.67;;;3.50;99.90;;;;;;4893077;29;20211;-76
2021/01/14 11:43:01;;;;;;;10.30;3.60;;;3.50;99.90;;;;;;4894626;29;20220;-78
2021/01/14 11:45:35;;;;;;;8.60;4.35;;;3.60;99.90;;;;;;4890239;29;20227;-77
2021/01/14 11:48:08;;;;;;;6.68;4.00;;;3.60;99.90;;;;;;4893232;29;20360;-77
2021/01/14 11:50:44;;;;;;;4.53;3.85;;;3.60;99.90;;;;;;4901571;29;20224;-79
2021/01/14 11:53:17;;;;;;;5.15;3.63;;;3.60;99.90;;;;;;4914431;29;20222;-79
2021/01/14 11:55:44;;;;;;;6.25;3.75;;;3.60;99.90;;;;;;4915427;29;20236;-77
2021/01/14 11:58:12;;;;;;;6.82;3.38;;;3.60;99.90;;;;;;4915991;29;20211;-79
2021/01/14 12:00:46;;;;;;;6.38;3.20;;;3.60;99.90;;;;;;4899738;29;20208;-76
2021/01/14 12:03:18;;;;;;;7.97;3.15;;;3.60;99.90;;;;;;4916285;29;20218;-77
2021/01/14 12:05:51;;;;;;;6.45;3.50;;;3.60;99.90;;;;;;4914556;29;20228;-76
2021/01/14 12:08:18;;;;;;;5.57;3.65;;;3.70;99.90;;;;;;4899366;29;20203;-76
2021/01/14 12:10:44;;;;;;;5.68;3.38;;;3.70;99.90;;;;;;4902634;29;20741;-75
2021/01/14 12:13:18;;;;;;;11.88;3.35;;;3.70;99.90;;;;;;4912946;29;20323;-75
2021/01/14 12:15:51;;;;;;;8.18;4.20;;;3.70;99.90;;;;;;4908095;29;20188;-75
2021/01/14 12:18:24;;;;;;;5.57;4.00;;;3.70;99.90;;;;;;4914810;29;20222;-75
2021/01/14 12:21:01;;;;;;;6.53;3.70;;;3.70;99.90;;;;;;4912511;29;20249;-77
2021/01/14 12:23:27;;;;;;;4.95;3.22;;;3.70;99.90;;;;;;4912520;29;20219;-78
2021/01/14 12:25:54;;;;;;;7.68;3.47;;;3.70;99.90;;;;;;4912434;29;20678;-78
2021/01/14 12:28:21;;;;;;;6.22;3.60;;;3.70;99.90;;;;;;4910289;29;20215;-76
2021/01/14 12:30:47;;;;;;;6.28;4.20;;;3.70;99.90;;;;;;4906594;29;20196;-77
2021/01/14 12:33:14;;;;;;;7.85;3.45;;;3.80;99.90;;;;;;4909554;29;20577;-77
2021/01/14 12:35:40;;;;;;;5.28;3.40;;;3.80;99.90;;;;;;4910293;29;20204;-76
2021/01/14 12:38:07;;;;;;;5.55;3.78;;;3.80;99.90;;;;;;4910566;29;20589;-78
2021/01/14 12:40:33;;;;;;;8.20;3.25;;;3.70;99.90;;;;;;4910322;29;20656;-77
2021/01/14 12:43:00;;;;;;;7.47;3.42;;;3.70;99.90;;;;;;4911940;29;20215;-77
2021/01/14 12:45:27;;;;;;;7.85;4.05;;;3.70;99.90;;;;;;4912098;29;20798;-76
2021/01/14 12:47:54;;;;;;;6.47;4.20;;;3.70;99.90;;;;;;4912119;29;20259;-76
2021/01/14 12:50:21;;;;;;;8.45;4.00;;;3.80;99.90;;;;;;4908586;29;20211;-76
2021/01/14 12:52:48;;;;;;;5.10;2.95;;;3.70;99.90;;;;;;4894061;29;20234;-77
2021/01/14 12:55:20;;;;;;;6.00;3.53;;;3.70;99.90;;;;;;4893456;29;20196;-77
2021/01/14 12:57:47;;;;;;;6.40;3.40;;;3.80;99.90;;;;;;4892011;29;20207;-78
2021/01/14 13:00:14;;;;;;;6.82;3.00;;;3.80;99.90;;;;;;4891577;29;20204;-77
2021/01/14 13:02:48;;;;;;;4.93;3.00;;;3.80;99.90;;;;;;4891583;29;20217;-77
2021/01/14 13:05:22;;;;;;;17.75;3.83;;;3.80;99.90;;;;;;4886434;29;20228;-77
2021/01/14 13:07:49;;;;;;;4.05;2.85;;;3.80;99.90;;;;;;4892181;29;20203;-77
2021/01/14 13:10:25;;;;;;;7.63;3.58;;;3.90;99.90;;;;;;4895504;29;20215;-76
2021/01/14 13:12:59;;;;;;;5.78;3.03;;;3.80;99.90;;;;;;4898715;29;20765;-77
2021/01/14 13:15:32;;;;;;;5.85;3.17;;;3.80;99.90;;;;;;4891359;29;20236;-77
2021/01/14 13:17:59;;;;;;;10.02;3.55;;;3.80;99.90;;;;;;4891021;29;20383;-75
2021/01/14 13:20:32;;;;;;;4.57;3.00;;;3.80;99.90;;;;;;4893880;29;20730;-77
2021/01/14 13:23:04;;;;;;;7.05;3.58;;;3.90;99.90;;;;;;4895058;29;20224;-78
2021/01/14 13:25:40;;;;;;;4.95;2.30;;;3.80;99.90;;;;;;4896024;29;20220;-76
2021/01/14 13:28:12;;;;;;;11.55;3.40;;;3.80;99.90;;;;;;4895567;29;20554;-77